sensor_id;sensor_type;location;lat;lon;timestamp;pressure;altitude;pressure_sealevel;temperature;humidity
9035;BME280;4552;43.422;24.592;2023-09-07T02:59:10;100445.34;;;21.87;48.51
9035;BME280;4552;43.422;24.592;2023-09-07T03:01:38;100455.81;;;21.73;49.57
9035;BME280;4552;43.422;24.592;2023-09-07T03:04:05;100443.00;;;21.81;49.37
9035;BME280;4552;43.422;24.592;2023-09-07T03:06:33;100449.44;;;21.77;49.04
9035;BME280;4552;43.422;24.592;2023-09-07T03:09:00;100439.81;;;21.73;49.05
9035;BME280;4552;43.422;24.592;2023-09-07T03:48:24;100478.69;;;21.79;48.85
9035;BME280;4552;43.422;24.592;2023-09-07T03:50:50;100476.34;;;21.90;48.63
9035;BME280;4552;43.422;24.592;2023-09-07T03:53:18;100484.50;;;21.87;48.08
9035;BME280;4552;43.422;24.592;2023-09-07T03:55:45;100486.53;;;21.82;48.54
9035;BME280;4552;43.422;24.592;2023-09-07T04:11:47;100487.88;;;21.55;49.33
9035;BME280;4552;43.422;24.592;2023-09-07T04:14:14;100486.34;;;21.49;49.09
9035;BME280;4552;43.422;24.592;2023-09-07T04:16:41;100483.44;;;21.37;49.58
9035;BME280;4552;43.422;24.592;2023-09-07T04:19:09;100495.69;;;21.41;49.63
9035;BME280;4552;43.422;24.592;2023-09-07T04:21:36;100489.75;;;21.53;49.34
9035;BME280;4552;43.422;24.592;2023-09-07T04:24:23;100489.94;;;21.31;49.83
9035;BME280;4552;43.422;24.592;2023-09-07T04:26:51;100494.44;;;21.48;49.72
9035;BME280;4552;43.422;24.592;2023-09-07T04:29:38;100493.41;;;21.33;50.13
9035;BME280;4552;43.422;24.592;2023-09-07T04:32:08;100496.81;;;21.35;50.07
9035;BME280;4552;43.422;24.592;2023-09-07T04:34:35;100480.16;;;21.32;50.13
9035;BME280;4552;43.422;24.592;2023-09-07T04:37:17;100495.09;;;21.34;49.97
9035;BME280;4552;43.422;24.592;2023-09-07T04:39:44;100502.47;;;21.11;50.73
9035;BME280;4552;43.422;24.592;2023-09-07T04:52:18;100507.94;;;21.62;50.14
9035;BME280;4552;43.422;24.592;2023-09-07T04:54:53;100492.38;;;21.36;50.03
9035;BME280;4552;43.422;24.592;2023-09-07T04:57:33;100499.47;;;21.54;49.93
9035;BME280;4552;43.422;24.592;2023-09-07T05:00:00;100510.16;;;21.71;50.14
9035;BME280;4552;43.422;24.592;2023-09-07T05:02:30;100499.84;;;21.82;49.47
9035;BME280;4552;43.422;24.592;2023-09-07T05:04:58;100511.63;;;21.59;50.06
9035;BME280;4552;43.422;24.592;2023-09-07T05:07:27;100512.88;;;21.69;49.64
9035;BME280;4552;43.422;24.592;2023-09-07T05:10:08;100512.47;;;21.60;49.67
9035;BME280;4552;43.422;24.592;2023-09-07T05:12:37;100513.13;;;21.65;49.96
9035;BME280;4552;43.422;24.592;2023-09-07T05:15:08;100512.16;;;21.66;49.76
9035;BME280;4552;43.422;24.592;2023-09-07T05:17:39;100506.53;;;21.72;49.86
9035;BME280;4552;43.422;24.592;2023-09-07T05:20:08;100520.31;;;21.81;49.38
9035;BME280;4552;43.422;24.592;2023-09-07T05:23:14;100529.03;;;22.19;48.77
9035;BME280;4552;43.422;24.592;2023-09-07T05:25:45;100535.44;;;22.32;48.87
9035;BME280;4552;43.422;24.592;2023-09-07T05:28:26;100538.28;;;22.29;48.46
9035;BME280;4552;43.422;24.592;2023-09-07T05:30:53;100530.75;;;22.20;48.85
9035;BME280;4552;43.422;24.592;2023-09-07T05:33:20;100525.56;;;22.17;49.29
9035;BME280;4552;43.422;24.592;2023-09-07T05:35:49;100538.91;;;22.00;49.00
9035;BME280;4552;43.422;24.592;2023-09-07T05:38:17;100538.75;;;22.03;48.81
9035;BME280;4552;43.422;24.592;2023-09-07T05:40:47;100520.41;;;22.14;49.02
9035;BME280;4552;43.422;24.592;2023-09-07T05:46:45;100517.25;;;22.40;48.41
9035;BME280;4552;43.422;24.592;2023-09-07T05:49:19;100518.81;;;22.27;48.51
9035;BME280;4552;43.422;24.592;2023-09-07T05:51:49;100536.09;;;22.54;48.43
9035;BME280;4552;43.422;24.592;2023-09-07T05:54:21;100550.66;;;22.47;47.91
9035;BME280;4552;43.422;24.592;2023-09-07T05:56:48;100542.66;;;22.13;48.98
9035;BME280;4552;43.422;24.592;2023-09-07T06:16:39;100549.25;;;22.40;47.85
9035;BME280;4552;43.422;24.592;2023-09-07T06:19:06;100548.16;;;22.44;48.43
9035;BME280;4552;43.422;24.592;2023-09-07T06:21:33;100547.50;;;22.39;48.04
9035;BME280;4552;43.422;24.592;2023-09-07T06:24:00;100533.41;;;22.37;48.12
9035;BME280;4552;43.422;24.592;2023-09-07T06:26:28;100542.03;;;22.59;48.07
9035;BME280;4552;43.422;24.592;2023-09-07T06:28:55;100547.63;;;22.55;47.57
9035;BME280;4552;43.422;24.592;2023-09-07T06:31:22;100554.03;;;22.68;47.36
9035;BME280;4552;43.422;24.592;2023-09-07T06:33:50;100550.91;;;22.60;47.82
9035;BME280;4552;43.422;24.592;2023-09-07T06:36:17;100559.88;;;22.59;47.17
9035;BME280;4552;43.422;24.592;2023-09-07T06:38:44;100560.53;;;22.79;47.44
9035;BME280;4552;43.422;24.592;2023-09-07T06:41:11;100559.34;;;23.00;47.43
9035;BME280;4552;43.422;24.592;2023-09-07T06:53:45;100579.84;;;24.10;45.98
9035;BME280;4552;43.422;24.592;2023-09-07T06:56:13;100576.06;;;23.99;46.18
9035;BME280;4552;43.422;24.592;2023-09-07T06:58:39;100572.25;;;24.03;45.24
9035;BME280;4552;43.422;24.592;2023-09-07T07:01:06;100576.31;;;24.10;44.29
9035;BME280;4552;43.422;24.592;2023-09-07T07:03:33;100571.47;;;23.85;45.00
9035;BME280;4552;43.422;24.592;2023-09-07T07:06:01;100571.75;;;23.80;45.73
9035;BME280;4552;43.422;24.592;2023-09-07T07:08:28;100563.28;;;24.04;46.18
9035;BME280;4552;43.422;24.592;2023-09-07T07:10:56;100579.88;;;24.24;45.79
9035;BME280;4552;43.422;24.592;2023-09-07T07:20:08;100558.91;;;23.87;46.94
9035;BME280;4552;43.422;24.592;2023-09-07T07:22:35;100572.91;;;24.22;46.49
9035;BME280;4552;43.422;24.592;2023-09-07T07:25:03;100563.47;;;23.85;45.87
9035;BME280;4552;43.422;24.592;2023-09-07T07:37:37;100569.06;;;24.26;45.75
9035;BME280;4552;43.422;24.592;2023-09-07T07:40:05;100565.97;;;24.04;46.02
9035;BME280;4552;43.422;24.592;2023-09-07T07:42:32;100563.91;;;24.23;45.76
9035;BME280;4552;43.422;24.592;2023-09-07T07:44:59;100554.56;;;24.30;45.14
9035;BME280;4552;43.422;24.592;2023-09-07T07:47:26;100562.47;;;24.47;45.29
9035;BME280;4552;43.422;24.592;2023-09-07T07:49:53;100568.09;;;24.56;44.84
9035;BME280;4552;43.422;24.592;2023-09-07T07:52:20;100566.38;;;24.55;45.40
9035;BME280;4552;43.422;24.592;2023-09-07T07:54:49;100564.47;;;24.57;44.92
9035;BME280;4552;43.422;24.592;2023-09-07T07:57:16;100563.22;;;24.63;45.70
9035;BME280;4552;43.422;24.592;2023-09-07T07:59:43;100557.53;;;24.83;45.11
9035;BME280;4552;43.422;24.592;2023-09-07T08:02:10;100561.75;;;25.01;44.70
9035;BME280;4552;43.422;24.592;2023-09-07T08:04:37;100560.53;;;25.06;44.86
9035;BME280;4552;43.422;24.592;2023-09-07T08:07:09;100562.34;;;25.06;45.32
9035;BME280;4552;43.422;24.592;2023-09-07T08:09:37;100559.66;;;25.20;44.70
9035;BME280;4552;43.422;24.592;2023-09-07T08:12:06;100554.78;;;24.98;45.65
9035;BME280;4552;43.422;24.592;2023-09-07T08:14:33;100547.59;;;24.85;46.25
9035;BME280;4552;43.422;24.592;2023-09-07T08:17:01;100553.41;;;25.19;45.79
9035;BME280;4552;43.422;24.592;2023-09-07T08:19:28;100558.97;;;25.30;44.56
9035;BME280;4552;43.422;24.592;2023-09-07T08:21:56;100552.47;;;25.34;45.08
9035;BME280;4552;43.422;24.592;2023-09-07T08:24:42;100556.91;;;25.62;44.63
9035;BME280;4552;43.422;24.592;2023-09-07T08:27:17;100550.34;;;25.66;44.53
9035;BME280;4552;43.422;24.592;2023-09-07T08:29:46;100551.16;;;25.54;45.18
9035;BME280;4552;43.422;24.592;2023-09-07T08:32:17;100558.25;;;25.82;45.16
9035;BME280;4552;43.422;24.592;2023-09-07T08:34:44;100546.97;;;25.50;44.89
9035;BME280;4552;43.422;24.592;2023-09-07T08:37:11;100550.34;;;25.66;44.30
9035;BME280;4552;43.422;24.592;2023-09-07T08:39:38;100540.13;;;25.59;45.42
9035;BME280;4552;43.422;24.592;2023-09-07T08:42:06;100553.25;;;25.63;44.16
9035;BME280;4552;43.422;24.592;2023-09-07T08:51:19;100552.56;;;26.00;44.67
9035;BME280;4552;43.422;24.592;2023-09-07T08:53:46;100543.59;;;25.87;45.35
9035;BME280;4552;43.422;24.592;2023-09-07T08:56:17;100536.94;;;26.19;44.66
9035;BME280;4552;43.422;24.592;2023-09-07T08:58:53;100529.97;;;26.29;43.85
9035;BME280;4552;43.422;24.592;2023-09-07T09:01:20;100542.75;;;26.38;44.34
9035;BME280;4552;43.422;24.592;2023-09-07T09:03:48;100534.72;;;26.51;43.62
9035;BME280;4552;43.422;24.592;2023-09-07T09:06:18;100538.78;;;26.56;43.53
9035;BME280;4552;43.422;24.592;2023-09-07T09:08:46;100531.81;;;26.54;42.25
9035;BME280;4552;43.422;24.592;2023-09-07T09:11:14;100534.06;;;26.60;42.91
9035;BME280;4552;43.422;24.592;2023-09-07T09:47:21;100513.75;;;27.31;41.94
9035;BME280;4552;43.422;24.592;2023-09-07T09:49:51;100508.34;;;27.19;42.07
9035;BME280;4552;43.422;24.592;2023-09-07T09:52:56;100501.97;;;26.96;41.36
9035;BME280;4552;43.422;24.592;2023-09-07T10:00:32;100514.84;;;27.03;41.12
9035;BME280;4552;43.422;24.592;2023-09-07T10:03:12;100497.75;;;27.04;40.74
9035;BME280;4552;43.422;24.592;2023-09-07T10:06:18;100499.09;;;27.23;40.99
9035;BME280;4552;43.422;24.592;2023-09-07T10:09:01;100507.84;;;27.50;40.51
9035;BME280;4552;43.422;24.592;2023-09-07T10:13:59;100505.25;;;27.48;40.32
9035;BME280;4552;43.422;24.592;2023-09-07T10:16:28;100493.59;;;27.37;40.66
9035;BME280;4552;43.422;24.592;2023-09-07T10:18:57;100491.59;;;27.28;41.13
9035;BME280;4552;43.422;24.592;2023-09-07T10:21:25;100488.78;;;27.17;41.05
9035;BME280;4552;43.422;24.592;2023-09-07T10:23:54;100490.38;;;27.19;40.84
9035;BME280;4552;43.422;24.592;2023-09-07T10:26:22;100475.25;;;27.05;40.37
9035;BME280;4552;43.422;24.592;2023-09-07T11:03:06;100446.13;;;27.83;38.39
9035;BME280;4552;43.422;24.592;2023-09-07T11:08:09;100437.03;;;28.18;37.94
9035;BME280;4552;43.422;24.592;2023-09-07T11:11:00;100453.56;;;28.03;37.01
9035;BME280;4552;43.422;24.592;2023-09-07T11:13:29;100439.00;;;27.82;38.06
9035;BME280;4552;43.422;24.592;2023-09-07T11:18:41;100426.41;;;28.06;37.62
9035;BME280;4552;43.422;24.592;2023-09-07T11:21:20;100425.41;;;28.07;37.47
9035;BME280;4552;43.422;24.592;2023-09-07T11:23:51;100418.28;;;27.95;37.00
9035;BME280;4552;43.422;24.592;2023-09-07T11:26:18;100429.69;;;27.98;37.27
9035;BME280;4552;43.422;24.592;2023-09-07T11:35:38;100419.59;;;27.89;36.83
9035;BME280;4552;43.422;24.592;2023-09-07T11:38:06;100416.78;;;27.91;38.03
9035;BME280;4552;43.422;24.592;2023-09-07T11:40:37;100414.72;;;27.94;37.07
9035;BME280;4552;43.422;24.592;2023-09-07T11:49:51;100404.09;;;28.04;37.12
9035;BME280;4552;43.422;24.592;2023-09-07T11:52:21;100408.25;;;27.97;37.17
9035;BME280;4552;43.422;24.592;2023-09-07T11:54:50;100403.97;;;27.94;37.24
9035;BME280;4552;43.422;24.592;2023-09-07T11:57:17;100404.38;;;28.34;36.21
9035;BME280;4552;43.422;24.592;2023-09-07T11:59:44;100401.56;;;28.35;37.06
9035;BME280;4552;43.422;24.592;2023-09-07T12:02:47;100378.91;;;28.27;36.64
9035;BME280;4552;43.422;24.592;2023-09-07T12:08:08;100403.81;;;28.52;36.26
9035;BME280;4552;43.422;24.592;2023-09-07T12:10:45;100392.41;;;28.38;36.76
9035;BME280;4552;43.422;24.592;2023-09-07T12:26:55;100370.59;;;28.63;35.33
9035;BME280;4552;43.422;24.592;2023-09-07T12:29:24;100362.28;;;28.44;35.09
9035;BME280;4552;43.422;24.592;2023-09-07T12:32:23;100374.38;;;28.83;35.57
9035;BME280;4552;43.422;24.592;2023-09-07T12:34:56;100367.38;;;28.91;35.30
9035;BME280;4552;43.422;24.592;2023-09-07T12:37:23;100362.00;;;28.91;34.87
9035;BME280;4552;43.422;24.592;2023-09-07T12:39:51;100380.97;;;29.01;34.96
9035;BME280;4552;43.422;24.592;2023-09-07T12:42:19;100376.59;;;28.66;35.72
9035;BME280;4552;43.422;24.592;2023-09-07T12:44:47;100370.97;;;28.81;35.02
9035;BME280;4552;43.422;24.592;2023-09-07T12:47:33;100363.72;;;28.81;34.90
9035;BME280;4552;43.422;24.592;2023-09-07T12:50:15;100371.66;;;28.83;35.48
9035;BME280;4552;43.422;24.592;2023-09-07T12:52:42;100372.25;;;28.97;34.38
9035;BME280;4552;43.422;24.592;2023-09-07T12:55:19;100366.13;;;29.06;34.70
9035;BME280;4552;43.422;24.592;2023-09-07T12:57:51;100358.28;;;28.92;34.30
9035;BME280;4552;43.422;24.592;2023-09-07T13:07:01;100352.75;;;29.05;34.66
9035;BME280;4552;43.422;24.592;2023-09-07T13:09:29;100319.28;;;29.07;34.29
9035;BME280;4552;43.422;24.592;2023-09-07T13:12:02;100357.00;;;29.29;34.00
9035;BME280;4552;43.422;24.592;2023-09-07T13:14:30;100364.19;;;28.86;33.97
9035;BME280;4552;43.422;24.592;2023-09-07T13:16:57;100361.84;;;28.93;34.30
9035;BME280;4552;43.422;24.592;2023-09-07T14:25:10;100329.09;;;28.65;34.88
9035;BME280;4552;43.422;24.592;2023-09-07T14:27:54;100303.72;;;28.57;34.52
9035;BME280;4552;43.422;24.592;2023-09-07T14:30:21;100308.56;;;28.85;34.26
9035;BME280;4552;43.422;24.592;2023-09-07T14:32:49;100305.66;;;28.77;34.93
9035;BME280;4552;43.422;24.592;2023-09-07T14:35:39;100310.84;;;29.01;33.79
9035;BME280;4552;43.422;24.592;2023-09-07T14:38:21;100315.53;;;28.88;34.20
9035;BME280;4552;43.422;24.592;2023-09-07T14:40:52;100306.59;;;28.87;34.30
9035;BME280;4552;43.422;24.592;2023-09-07T14:46:09;100295.56;;;28.90;34.15
9035;BME280;4552;43.422;24.592;2023-09-07T14:48:38;100305.53;;;28.79;33.98
9035;BME280;4552;43.422;24.592;2023-09-07T14:51:13;100297.06;;;28.72;34.43
9035;BME280;4552;43.422;24.592;2023-09-07T14:53:44;100308.84;;;28.82;34.47
9035;BME280;4552;43.422;24.592;2023-09-07T14:56:18;100299.91;;;28.70;34.24
9035;BME280;4552;43.422;24.592;2023-09-07T15:12:14;100284.03;;;28.56;34.19
9035;BME280;4552;43.422;24.592;2023-09-07T15:18:04;100290.50;;;28.54;34.51
9035;BME280;4552;43.422;24.592;2023-09-07T15:20:50;100291.88;;;28.59;34.58
9035;BME280;4552;43.422;24.592;2023-09-07T15:23:18;100296.66;;;28.56;34.57
9035;BME280;4552;43.422;24.592;2023-09-07T15:25:46;100297.03;;;28.51;34.76
9035;BME280;4552;43.422;24.592;2023-09-07T15:45:36;100303.84;;;28.44;34.38
9035;BME280;4552;43.422;24.592;2023-09-07T15:48:07;100282.69;;;28.29;34.71
9035;BME280;4552;43.422;24.592;2023-09-07T15:50:35;100298.81;;;28.40;34.54
9035;BME280;4552;43.422;24.592;2023-09-07T15:53:08;100303.38;;;28.50;35.09
9035;BME280;4552;43.422;24.592;2023-09-07T15:55:51;100285.72;;;28.35;35.31
9035;BME280;4552;43.422;24.592;2023-09-07T15:58:19;100294.69;;;28.25;34.62
9035;BME280;4552;43.422;24.592;2023-09-07T16:01:01;100295.44;;;28.16;34.40
9035;BME280;4552;43.422;24.592;2023-09-07T16:03:36;100306.69;;;28.32;34.45
9035;BME280;4552;43.422;24.592;2023-09-07T16:06:07;100305.94;;;28.52;34.70
9035;BME280;4552;43.422;24.592;2023-09-07T16:08:34;100295.19;;;28.30;34.70
9035;BME280;4552;43.422;24.592;2023-09-07T16:11:01;100304.50;;;28.26;35.12
9035;BME280;4552;43.422;24.592;2023-09-07T16:13:36;100306.44;;;28.13;35.24
9035;BME280;4552;43.422;24.592;2023-09-07T16:16:07;100312.56;;;28.15;35.37
9035;BME280;4552;43.422;24.592;2023-09-07T16:18:34;100308.41;;;28.11;34.74
9035;BME280;4552;43.422;24.592;2023-09-07T16:23:57;100317.31;;;28.00;35.28
9035;BME280;4552;43.422;24.592;2023-09-07T16:26:41;100329.94;;;28.00;34.72
9035;BME280;4552;43.422;24.592;2023-09-07T16:36:21;100304.88;;;27.54;35.74
9035;BME280;4552;43.422;24.592;2023-09-07T16:38:51;100310.16;;;27.55;35.78
9035;BME280;4552;43.422;24.592;2023-09-07T16:41:19;100321.75;;;27.45;35.86
9035;BME280;4552;43.422;24.592;2023-09-07T16:46:41;100314.84;;;27.30;35.75
9035;BME280;4552;43.422;24.592;2023-09-07T16:49:43;100325.81;;;27.27;35.89
9035;BME280;4552;43.422;24.592;2023-09-07T16:52:13;100320.16;;;27.19;36.09
9035;BME280;4552;43.422;24.592;2023-09-07T16:55:20;100347.25;;;27.16;36.36
9035;BME280;4552;43.422;24.592;2023-09-07T17:00:46;100332.19;;;27.02;36.43
9035;BME280;4552;43.422;24.592;2023-09-07T17:06:08;100325.78;;;26.79;36.90
9035;BME280;4552;43.422;24.592;2023-09-07T17:09:02;100341.19;;;26.77;36.54
9035;BME280;4552;43.422;24.592;2023-09-07T17:11:29;100338.44;;;26.66;37.19
9035;BME280;4552;43.422;24.592;2023-09-07T17:34:51;100373.47;;;26.27;37.59
9035;BME280;4552;43.422;24.592;2023-09-07T17:37:24;100376.41;;;25.99;38.50
9035;BME280;4552;43.422;24.592;2023-09-07T17:39:51;100374.56;;;25.87;38.43
9035;BME280;4552;43.422;24.592;2023-09-07T17:42:39;100389.47;;;25.91;38.45
9035;BME280;4552;43.422;24.592;2023-09-07T17:48:30;100387.50;;;25.68;38.90
9035;BME280;4552;43.422;24.592;2023-09-07T17:51:22;100386.00;;;25.64;38.79
9035;BME280;4552;43.422;24.592;2023-09-07T17:53:51;100390.59;;;25.62;39.08
9035;BME280;4552;43.422;24.592;2023-09-07T17:56:19;100410.34;;;25.61;39.30
9035;BME280;4552;43.422;24.592;2023-09-07T18:05:11;100408.03;;;25.69;39.37
9035;BME280;4552;43.422;24.592;2023-09-07T18:07:48;100393.34;;;25.48;39.38
9035;BME280;4552;43.422;24.592;2023-09-07T18:10:15;100415.38;;;25.53;38.85
9035;BME280;4552;43.422;24.592;2023-09-07T18:12:43;100398.50;;;25.38;38.98
9035;BME280;4552;43.422;24.592;2023-09-07T18:28:42;100415.53;;;25.11;39.70
9035;BME280;4552;43.422;24.592;2023-09-07T18:31:13;100418.78;;;25.02;39.45
9035;BME280;4552;43.422;24.592;2023-09-07T18:33:43;100405.56;;;24.99;39.53
9035;BME280;4552;43.422;24.592;2023-09-07T18:36:14;100415.75;;;24.94;39.45
9035;BME280;4552;43.422;24.592;2023-09-07T18:38:41;100406.47;;;24.85;39.68
9035;BME280;4552;43.422;24.592;2023-09-07T18:41:09;100416.06;;;24.89;39.54
9035;BME280;4552;43.422;24.592;2023-09-07T19:03:51;100437.38;;;24.63;39.19
9035;BME280;4552;43.422;24.592;2023-09-07T19:06:21;100434.13;;;24.58;39.40
9035;BME280;4552;43.422;24.592;2023-09-07T19:08:56;100441.22;;;24.59;39.67
9035;BME280;4552;43.422;24.592;2023-09-07T19:11:31;100439.91;;;24.66;39.53
9035;BME280;4552;43.422;24.592;2023-09-07T19:17:20;100438.91;;;24.81;39.19
9035;BME280;4552;43.422;24.592;2023-09-07T19:19:50;100434.16;;;24.72;39.87
9035;BME280;4552;43.422;24.592;2023-09-07T19:22:31;100448.50;;;24.71;39.26
9035;BME280;4552;43.422;24.592;2023-09-07T19:24:58;100441.88;;;24.76;39.99
9035;BME280;4552;43.422;24.592;2023-09-07T19:27:25;100451.00;;;24.74;39.85
9035;BME280;4552;43.422;24.592;2023-09-07T19:29:51;100443.44;;;24.66;40.20
9035;BME280;4552;43.422;24.592;2023-09-07T19:32:21;100453.06;;;24.55;40.45
9035;BME280;4552;43.422;24.592;2023-09-07T19:34:51;100451.53;;;24.51;41.08
9035;BME280;4552;43.422;24.592;2023-09-07T19:37:18;100444.28;;;24.39;40.91
9035;BME280;4552;43.422;24.592;2023-09-07T19:39:45;100449.63;;;24.25;41.56
9035;BME280;4552;43.422;24.592;2023-09-07T19:42:12;100456.59;;;24.13;41.55
9035;BME280;4552;43.422;24.592;2023-09-07T23:29:43;100416.22;;;19.40;65.47
9035;BME280;4552;43.422;24.592;2023-09-07T23:32:10;100417.28;;;19.36;66.00
9035;BME280;4552;43.422;24.592;2023-09-07T23:34:37;100426.69;;;19.22;66.73
9035;BME280;4552;43.422;24.592;2023-09-07T23:37:04;100419.53;;;19.24;66.73
9035;BME280;4552;43.422;24.592;2023-09-07T23:39:32;100414.56;;;19.16;67.41
9035;BME280;4552;43.422;24.592;2023-09-07T23:41:59;100401.78;;;19.04;68.54
9035;BME280;4552;43.422;24.592;2023-09-07T23:44:26;100414.63;;;18.93;69.69
9035;BME280;4552;43.422;24.592;2023-09-07T23:46:55;100407.22;;;18.79;69.97
9035;BME280;4552;43.422;24.592;2023-09-07T23:49:22;100409.22;;;18.73;71.35
9035;BME280;4552;43.422;24.592;2023-09-07T23:51:48;100411.41;;;18.85;70.44
9035;BME280;4552;43.422;24.592;2023-09-07T23:54:15;100417.06;;;18.76;70.44
9035;BME280;4552;43.422;24.592;2023-09-07T23:56:42;100419.25;;;18.65;71.25
